| time (UTC) | temp C | wind direction | speed KPH | gust KPH | rain 1hr cm | rain 24hr cm | rain mn cm | humidity % | barometer mb |
| 20260509090052 | 12 | 190 | 3.2 | 9.7 | 0.00 | 0.36 | 0.00 | 89 | 1006.4 |
| 20260509084553 | 12 | 205 | 4.8 | 8.0 | 0.00 | 0.36 | 0.00 | 89 | 1006.6 |
| 20260509083050 | 12 | 189 | 4.8 | 9.7 | 0.00 | 0.36 | 0.00 | 89 | 1006.5 |
| 20260509081559 | 12 | 211 | 3.2 | 8.0 | 0.00 | 0.36 | 0.00 | 90 | 1006.4 |
| 20260509080057 | 12 | 188 | 3.2 | 8.0 | 0.00 | 0.36 | 0.00 | 90 | 1006.5 |
| 20260509074549 | 12 | 182 | 3.2 | 8.0 | 0.00 | 0.36 | 0.00 | 90 | 1006.6 |
| 20260509073056 | 12 | 181 | 3.2 | 8.0 | 0.00 | 0.36 | 0.00 | 90 | 1006.7 |
| 20260509071552 | 12 | 199 | 1.6 | 6.4 | 0.00 | 0.36 | 0.00 | 90 | 1007.0 |
| 20260509070057 | 12 | 0 | 1.6 | 6.4 | 0.00 | 0.36 | 0.00 | 90 | 1007.1 |
| 20260509064550 | 12 | 203 | 3.2 | 8.0 | 0.00 | 0.36 | 0.00 | 90 | 1007.4 |
| 20260509063059 | 12 | 225 | 4.8 | 9.7 | 0.00 | 0.36 | 0.00 | 90 | 1007.6 |
| 20260509061605 | 12 | 217 | 4.8 | 11.3 | 0.00 | 0.36 | 0.00 | 90 | 1007.7 |
| 20260509060053 | 12 | 182 | 4.8 | 9.7 | 0.00 | 0.36 | 0.00 | 90 | 1008.0 |
| 20260509054558 | 12 | 194 | 4.8 | 9.7 | 0.00 | 0.36 | 0.00 | 90 | 1008.3 |
| 20260509053058 | 12 | 211 | 4.8 | 9.7 | 0.00 | 0.36 | 0.00 | 90 | 1008.3 |
| 20260509051553 | 12 | 194 | 4.8 | 9.7 | 0.00 | 0.36 | 0.00 | 90 | 1008.2 |
| 20260509050052 | 12 | 205 | 4.8 | 8.0 | 0.00 | 0.36 | 0.00 | 90 | 1008.3 |
| 20260509044556 | 12 | 191 | 3.2 | 8.0 | 0.00 | 0.36 | 0.00 | 89 | 1008.5 |
| 20260509043059 | 12 | 186 | 3.2 | 6.4 | 0.00 | 0.36 | 0.00 | 89 | 1008.3 |
| 20260509041554 | 12 | 0 | 0.0 | 4.8 | 0.00 | 0.36 | 0.00 | 89 | 1008.4 |
| 20260509040058 | 12 | 221 | 3.2 | 4.8 | 0.00 | 0.36 | 0.00 | 89 | 1008.2 |
| 20260509034602 | 12 | 186 | 1.6 | 4.8 | 0.00 | 0.36 | 0.36 | 88 | 1008.3 |
| 20260509033056 | 12 | 198 | 1.6 | 4.8 | 0.00 | 0.36 | 0.36 | 87 | 1008.2 |
| 20260509031556 | 12 | 190 | 1.6 | 4.8 | 0.00 | 0.36 | 0.36 | 87 | 1008.2 |
| 20260509030056 | 12 | 0 | 1.6 | 4.8 | 0.00 | 0.36 | 0.36 | 87 | 1008.1 |
| 20260509024553 | 12 | 208 | 3.2 | 8.0 | 0.00 | 0.36 | 0.36 | 88 | 1008.1 |
| 20260509023055 | 12 | 207 | 1.6 | 8.0 | 0.00 | 0.36 | 0.36 | 88 | 1008.5 |
| 20260509021554 | 12 | 234 | 3.2 | 8.0 | 0.00 | 0.36 | 0.36 | 89 | 1008.2 |
| 20260509020054 | 12 | 223 | 3.2 | 9.7 | 0.00 | 0.36 | 0.36 | 89 | 1008.3 |
| 20260509014551 | 12 | 215 | 1.6 | 6.4 | 0.00 | 0.36 | 0.36 | 89 | 1008.3 |
| 20260509013052 | 12 | 187 | 1.6 | 4.8 | 0.00 | 0.36 | 0.36 | 89 | 1008.2 |
| 20260509011604 | 12 | 200 | 1.6 | 6.4 | 0.00 | 0.36 | 0.36 | 89 | 1008.2 |
| 20260509010054 | 12 | 189 | 3.2 | 8.0 | 0.00 | 0.36 | 0.36 | 90 | 1008.5 |
| 20260509004555 | 12 | 153 | 3.2 | 8.0 | 0.00 | 0.36 | 0.36 | 90 | 1008.3 |
| 20260509003058 | 12 | 204 | 3.2 | 9.7 | 0.00 | 0.36 | 0.36 | 90 | 1008.4 |
| 20260509001556 | 12 | 166 | 3.2 | 8.0 | 0.00 | 0.36 | 0.36 | 90 | 1008.5 |
| 20260508234556 | 12 | 177 | 3.2 | 8.0 | 0.03 | 0.36 | 0.36 | 90 | 1008.7 |
| 20260508233054 | 12 | 208 | 3.2 | 6.4 | 0.05 | 0.36 | 0.36 | 90 | 1008.8 |
| 20260508231633 | 12 | 199 | 3.2 | 8.0 | 0.10 | 0.36 | 0.36 | 91 | 1008.8 |
| 20260508230101 | 12 | 201 | 1.6 | 6.4 | 0.10 | 0.33 | 0.33 | 91 | 1008.7 |
| 20260508224559 | 12 | 191 | 1.6 | 8.0 | 0.10 | 0.30 | 0.30 | 90 | 1008.8 |
| 20260508223052 | 12 | 191 | 1.6 | 6.4 | 0.18 | 0.30 | 0.30 | 90 | 1008.9 |
| 20260508221553 | 12 | 206 | 3.2 | 6.4 | 0.20 | 0.25 | 0.25 | 90 | 1009.0 |
| 20260508220056 | 12 | 0 | 0.0 | 6.4 | 0.20 | 0.23 | 0.23 | 89 | 1009.1 |
| 20260508214626 | 12 | 208 | 0.0 | 4.8 | 0.20 | 0.20 | 0.20 | 88 | 1009.3 |
| 20260508213053 | 12 | 0 | 0.0 | 0.0 | 0.13 | 0.13 | 0.13 | 87 | 1009.3 |
| 20260508211550 | 12 | 0 | 0.0 | 1.6 | 0.05 | 0.05 | 0.05 | 86 | 1009.4 |
| 20260508210054 | 12 | 0 | 0.0 | 4.8 | 0.03 | 0.03 | 0.03 | 85 | 1009.3 |
| 20260508204552 | 13 | 0 | 0.0 | 4.8 | 0.00 | 0.00 | 0.00 | 84 | 1009.5 |
| 20260508203115 | 14 | 0 | 0.0 | 4.8 | 0.00 | 0.00 | 0.00 | 80 | 1009.6 |
| 20260508201552 | 15 | 284 | 0.0 | 4.8 | 0.00 | 0.00 | 0.00 | 76 | 1009.6 |
| 20260508200053 | 16 | 0 | 0.0 | 1.6 | 0.00 | 0.00 | 0.00 | 75 | 1009.5 |
| 20260508194556 | 16 | 0 | 0.0 | 1.6 | 0.00 | 0.00 | 0.00 | 74 | 1009.5 |
| 20260508193132 | 16 | 0 | 0.0 | 6.4 | 0.00 | 0.00 | 0.00 | 70 | 1009.6 |
| 20260508191555 | 16 | 190 | 3.2 | 9.7 | 0.00 | 0.00 | 0.00 | 68 | 1009.8 |
| 20260508190053 | 16 | 221 | 3.2 | 9.7 | 0.00 | 0.00 | 0.00 | 67 | 1009.7 |
| 20260508184603 | 16 | 238 | 6.4 | 12.9 | 0.00 | 0.00 | 0.00 | 67 | 1010.1 |
| 20260508183059 | 16 | 159 | 4.8 | 12.9 | 0.00 | 0.00 | 0.00 | 66 | 1010.3 |
| 20260508181603 | 16 | 202 | 4.8 | 14.5 | 0.00 | 0.00 | 0.00 | 65 | 1010.4 |
| 20260508180119 | 16 | 210 | 4.8 | 12.9 | 0.00 | 0.00 | 0.00 | 66 | 1010.4 |
| 20260508174615 | 16 | 206 | 8.0 | 17.7 | 0.00 | 0.00 | 0.00 | 65 | 1010.6 |
| 20260508173054 | 16 | 234 | 9.7 | 16.1 | 0.00 | 0.00 | 0.00 | 62 | 1010.8 |
| 20260508171554 | 18 | 190 | 9.7 | 17.7 | 0.00 | 0.00 | 0.00 | 60 | 1010.7 |
| 20260508170109 | 18 | 196 | 11.3 | 19.3 | 0.00 | 0.00 | 0.00 | 61 | 1010.8 |
| 20260508164604 | 17 | 213 | 6.4 | 16.1 | 0.00 | 0.00 | 0.00 | 62 | 1011.2 |
| 20260508163056 | 17 | 204 | 8.0 | 14.5 | 0.00 | 0.00 | 0.00 | 63 | 1011.5 |
| 20260508161556 | 16 | 195 | 6.4 | 12.9 | 0.00 | 0.00 | 0.00 | 67 | 1011.8 |
| 20260508154601 | 15 | 227 | 6.4 | 14.5 | 0.00 | 0.00 | 0.00 | 65 | 1012.0 |
| 20260508153125 | 15 | 207 | 6.4 | 12.9 | 0.00 | 0.00 | 0.00 | 65 | 1012.0 |
| 20260508151559 | 15 | 202 | 8.0 | 12.9 | 0.00 | 0.00 | 0.00 | 66 | 1012.0 |
| 20260508150053 | 15 | 206 | 6.4 | 12.9 | 0.00 | 0.00 | 0.00 | 65 | 1012.0 |
| 20260508144557 | 15 | 251 | 6.4 | 12.9 | 0.00 | 0.00 | 0.00 | 66 | 1012.0 |
| 20260508143107 | 15 | 225 | 6.4 | 14.5 | 0.00 | 0.00 | 0.00 | 67 | 1012.2 |
| 20260508141555 | 15 | 205 | 6.4 | 16.1 | 0.00 | 0.00 | 0.00 | 65 | 1012.3 |
| 20260508140105 | 14 | 197 | 4.8 | 11.3 | 0.00 | 0.00 | 0.00 | 69 | 1012.5 |
| 20260508134555 | 13 | 218 | 4.8 | 9.7 | 0.00 | 0.00 | 0.00 | 69 | 1012.7 |
| 20260508133056 | 12 | 179 | 4.8 | 11.3 | 0.00 | 0.00 | 0.00 | 69 | 1012.8 |
| 20260508131552 | 12 | 227 | 3.2 | 8.0 | 0.00 | 0.00 | 0.00 | 70 | 1012.9 |
| 20260508130053 | 12 | 209 | 3.2 | 8.0 | 0.00 | 0.00 | 0.00 | 68 | 1012.8 |
| 20260508124554 | 11 | 215 | 1.6 | 4.8 | 0.00 | 0.00 | 0.00 | 71 | 1012.8 |
| 20260508123051 | 11 | 0 | 0.0 | 6.4 | 0.00 | 0.00 | 0.00 | 72 | 1013.0 |
| 20260508121612 | 10 | 0 | 0.0 | 12.9 | 0.00 | 0.00 | 0.00 | 72 | 1013.1 |
| 20260508120059 | 9 | 0 | 0.0 | 0.0 | 0.00 | 0.00 | 0.00 | 76 | 1012.8 |
| 20260508114607 | 8 | 0 | 0.0 | 0.0 | 0.00 | 0.00 | 0.00 | 76 | 1013.0 |
| 20260508113111 | 8 | 206 | 1.6 | 3.2 | 0.00 | 0.00 | 0.00 | 76 | 1012.8 |
| 20260508111617 | 8 | 0 | 0.0 | 0.0 | 0.00 | 0.00 | 0.00 | 75 | 1012.8 |
| 20260508110100 | 8 | 0 | 0.0 | 4.8 | 0.00 | 0.00 | 0.00 | 75 | 1012.8 |
| 20260508104559 | 8 | 215 | 4.8 | 8.0 | 0.00 | 0.00 | 0.00 | 74 | 1012.5 |
| 20260508103054 | 8 | 0 | 0.0 | 8.0 | 0.00 | 0.00 | 0.00 | 74 | 1012.8 |
| 20260508101554 | 8 | 325 | 1.6 | 6.4 | 0.00 | 0.00 | 0.00 | 73 | 1012.6 |
| 20260508100054 | 8 | 224 | 4.8 | 8.0 | 0.00 | 0.00 | 0.00 | 72 | 1012.1 |
| 20260508094600 | 9 | 189 | 4.8 | 9.7 | 0.00 | 0.00 | 0.00 | 71 | 1012.1 |
| 20260508093059 | 9 | 211 | 4.8 | 9.7 | 0.00 | 0.00 | 0.00 | 70 | 1012.1 |
| 20260508091608 | 9 | 223 | 3.2 | 6.4 | 0.00 | 0.00 | 0.00 | 70 | 1012.2 |